createdAt,value
2023-01-02T00:01:07.432Z,5.03
2023-01-02T00:03:34.634Z,10.77
2023-01-02T00:06:06.488Z,7.18
2023-01-02T00:08:33.940Z,5.80
2023-01-02T00:11:01.220Z,6.10
2023-01-02T00:13:28.255Z,6.75
2023-01-02T00:15:55.291Z,6.53
2023-01-02T00:18:22.349Z,6.57
2023-01-02T00:20:49.315Z,7.38
2023-01-02T00:23:16.400Z,7.40
2023-01-02T00:25:43.359Z,7.00
2023-01-02T00:28:10.377Z,5.68
2023-01-02T00:30:40.486Z,7.70
2023-01-02T00:33:07.964Z,4.97
2023-01-02T00:35:38.737Z,7.32
2023-01-02T00:38:06.642Z,4.72
2023-01-02T00:40:34.085Z,7.88
2023-01-02T00:43:02.009Z,6.65
2023-01-02T00:45:29.021Z,6.45
2023-01-02T00:47:55.985Z,7.07
2023-01-02T00:50:22.935Z,6.28
2023-01-02T00:52:49.887Z,5.50
2023-01-02T00:55:16.971Z,5.70
2023-01-02T00:57:43.934Z,4.53
2023-01-02T01:00:11.764Z,6.00
2023-01-02T01:02:38.946Z,7.32
2023-01-02T01:05:06.774Z,6.15
2023-01-02T01:07:33.703Z,5.10
2023-01-02T01:10:00.780Z,8.20
2023-01-02T01:12:27.740Z,6.40
2023-01-02T01:14:54.687Z,6.15
2023-01-02T01:17:21.635Z,4.97
2023-01-02T01:19:49.518Z,6.70
2023-01-02T01:22:16.501Z,6.10
2023-01-02T01:24:43.441Z,6.82
2023-01-02T01:27:10.458Z,9.50
2023-01-02T01:29:37.409Z,8.07
2023-01-02T01:32:04.778Z,6.53
2023-01-02T01:34:31.716Z,9.30
2023-01-02T01:36:58.696Z,6.47
2023-01-02T01:39:25.672Z,6.05
2023-01-02T01:41:52.721Z,7.45
2023-01-02T01:44:53.567Z,6.00
2023-01-02T01:47:36.802Z,4.90
2023-01-02T01:50:34.024Z,5.03
2023-01-02T01:53:11.263Z,6.03
2023-01-02T01:55:50.265Z,3.92
2023-01-02T01:58:27.034Z,5.40
2023-01-02T02:00:54.277Z,4.78
2023-01-02T02:03:26.060Z,3.88
2023-01-02T02:05:53.558Z,6.03
2023-01-02T02:08:46.530Z,3.72
2023-01-02T02:11:14.479Z,4.90
2023-01-02T02:13:42.617Z,6.27
2023-01-02T02:16:15.767Z,5.63
2023-01-02T02:18:51.612Z,2.47
2023-01-02T02:21:27.485Z,6.95
2023-01-02T02:24:27.298Z,5.47
2023-01-02T02:27:05.810Z,6.85
2023-01-02T02:30:20.389Z,6.05
2023-01-02T02:33:31.907Z,6.95
2023-01-02T02:36:13.747Z,5.23
2023-01-02T02:39:12.597Z,5.10
2023-01-02T02:41:59.431Z,5.13
2023-01-02T02:45:02.370Z,4.00
2023-01-02T02:48:01.273Z,7.60
2023-01-02T02:50:54.186Z,6.45
2023-01-02T02:53:26.143Z,3.60
2023-01-02T02:55:57.496Z,6.93
2023-01-02T02:58:26.378Z,7.15
2023-01-02T03:01:07.952Z,5.35
2023-01-02T03:03:35.151Z,4.13
2023-01-02T03:06:04.762Z,3.22
2023-01-02T03:09:01.417Z,5.97
2023-01-02T03:12:08.059Z,5.97
2023-01-02T03:14:53.168Z,5.90
2023-01-02T03:17:46.029Z,4.15
2023-01-02T03:20:18.038Z,6.10
2023-01-02T03:22:52.967Z,6.15
2023-01-02T03:25:22.042Z,6.45
2023-01-02T03:27:51.632Z,4.40
2023-01-02T03:30:22.303Z,4.63
2023-01-02T03:33:17.156Z,3.20
2023-01-02T03:35:54.297Z,5.07
2023-01-02T03:38:47.837Z,4.93
2023-01-02T03:41:31.665Z,3.30
2023-01-02T03:44:01.522Z,5.07
2023-01-02T03:46:58.294Z,6.63
2023-01-02T03:49:36.821Z,7.15
2023-01-02T03:52:03.930Z,4.22
2023-01-02T03:54:31.237Z,5.47
2023-01-02T03:57:04.028Z,5.05
2023-01-02T03:59:51.461Z,4.80
2023-01-02T04:02:21.155Z,4.00
2023-01-02T04:05:11.453Z,5.40
2023-01-02T04:08:25.459Z,4.47
2023-01-02T04:10:58.661Z,3.28
2023-01-02T04:13:42.466Z,4.32
2023-01-02T04:16:15.425Z,3.83
2023-01-02T04:19:04.378Z,4.38
2023-01-02T04:21:36.336Z,5.32
2023-01-02T04:24:10.734Z,4.97
2023-01-02T04:26:48.754Z,4.72
2023-01-02T04:29:15.838Z,4.55
2023-01-02T04:32:01.732Z,6.55
2023-01-02T04:34:33.734Z,3.75
2023-01-02T04:37:00.992Z,5.93
2023-01-02T04:39:29.229Z,3.67
2023-01-02T04:41:56.315Z,4.22
2023-01-02T04:44:23.308Z,4.22
2023-01-02T04:46:50.510Z,5.25
2023-01-02T04:49:17.516Z,4.18
2023-01-02T04:51:44.651Z,4.97
2023-01-02T04:54:12.259Z,4.40
2023-01-02T04:56:39.433Z,6.05
2023-01-02T04:59:06.443Z,4.40
2023-01-02T05:01:33.602Z,4.75
2023-01-02T05:04:00.663Z,4.30
2023-01-02T05:06:27.639Z,4.77
2023-01-02T05:08:54.625Z,6.25
2023-01-02T05:11:21.891Z,5.03
2023-01-02T05:13:48.966Z,4.70
2023-01-02T05:16:16.304Z,2.85
2023-01-02T05:18:43.278Z,4.38
2023-01-02T05:21:32.178Z,5.10
2023-01-02T05:24:02.783Z,4.15
2023-01-02T05:26:32.929Z,6.70
2023-01-02T05:29:01.232Z,3.78
2023-01-02T05:31:28.719Z,3.25
2023-01-02T05:33:58.384Z,3.08
2023-01-02T05:36:26.688Z,2.97
2023-01-02T05:38:54.565Z,3.53
2023-01-02T05:41:23.628Z,1.95
2023-01-02T05:43:50.658Z,1.20
2023-01-02T05:46:20.583Z,2.40
2023-01-02T05:48:47.880Z,1.33
2023-01-02T05:51:17.533Z,1.33
2023-01-02T05:53:44.896Z,1.73
2023-01-02T05:56:18.275Z,2.13
2023-01-02T05:58:47.767Z,1.48
2023-01-02T06:01:19.207Z,1.75
2023-01-02T06:03:52.386Z,0.60
2023-01-02T06:06:23.549Z,2.47
2023-01-02T06:08:50.691Z,0.90
2023-01-02T06:11:18.005Z,0.45
2023-01-02T06:13:44.950Z,0.60
2023-01-02T06:16:12.433Z,0.50
2023-01-02T06:18:40.484Z,1.83
2023-01-02T06:21:15.552Z,1.15
2023-01-02T06:23:43.741Z,0.83
2023-01-02T06:26:19.907Z,2.15
2023-01-02T06:28:51.644Z,2.78
2023-01-02T06:31:20.448Z,2.08
2023-01-02T06:33:47.832Z,1.67
2023-01-02T06:36:19.180Z,2.63
2023-01-02T06:38:46.542Z,2.58
2023-01-02T06:41:14.911Z,2.00
2023-01-02T06:43:45.564Z,2.15
2023-01-02T06:46:14.509Z,2.60
2023-01-02T06:48:42.542Z,1.77
2023-01-02T06:51:13.825Z,1.03
2023-01-02T06:53:42.632Z,2.17
2023-01-02T06:56:15.790Z,1.25
2023-01-02T06:58:42.777Z,1.90
2023-01-02T07:01:29.893Z,1.77
2023-01-02T07:03:57.009Z,1.70
2023-01-02T07:06:24.010Z,1.65
2023-01-02T07:08:51.963Z,1.42
2023-01-02T07:11:23.656Z,0.60
2023-01-02T07:13:53.636Z,1.17
2023-01-02T07:16:22.709Z,1.30
2023-01-02T07:18:51.205Z,1.15
2023-01-02T07:21:18.463Z,1.50
2023-01-02T07:23:45.657Z,0.70
2023-01-02T07:26:13.417Z,0.90
2023-01-02T07:28:40.598Z,3.00
2023-01-02T07:31:12.933Z,1.90
2023-01-02T07:33:39.945Z,0.85
2023-01-02T07:36:11.959Z,1.08
2023-01-02T07:38:39.480Z,0.35
2023-01-02T07:41:15.705Z,1.23
2023-01-02T07:43:44.736Z,0.50
2023-01-02T07:46:13.754Z,0.32
2023-01-02T07:48:40.931Z,0.60
2023-01-02T07:51:08.556Z,0.95
2023-01-02T07:53:36.037Z,0.80
2023-01-02T07:56:03.410Z,1.70
2023-01-02T07:58:30.945Z,1.83
2023-01-02T08:01:05.253Z,0.30
2023-01-02T08:03:32.747Z,1.00
2023-01-02T08:06:12.881Z,0.47
2023-01-02T08:08:40.531Z,0.25
2023-01-02T08:11:13.253Z,1.92
2023-01-02T08:13:40.888Z,1.13
2023-01-02T08:16:14.275Z,0.97
2023-01-02T08:18:41.729Z,0.80
2023-01-02T08:21:09.596Z,1.20
2023-01-02T08:23:36.773Z,0.50
2023-01-02T08:26:07.908Z,0.60
2023-01-02T08:28:36.299Z,0.73
2023-01-02T08:31:12.346Z,0.30
2023-01-02T08:33:39.582Z,1.13
2023-01-02T08:36:07.222Z,1.50
2023-01-02T08:38:34.439Z,1.40
2023-01-02T08:41:01.643Z,0.60
2023-01-02T08:43:28.941Z,0.25
2023-01-02T08:45:56.078Z,1.15
2023-01-02T08:48:23.093Z,0.20
2023-01-02T08:50:50.573Z,0.20
2023-01-02T08:53:18.624Z,0.50
2023-01-02T08:55:45.832Z,0.63
2023-01-02T08:58:12.883Z,0.50
2023-01-02T09:00:40.201Z,0.95
2023-01-02T09:03:07.473Z,0.63
2023-01-02T09:05:34.560Z,0.65
2023-01-02T09:08:02.751Z,1.63
2023-01-02T09:10:29.841Z,0.82
2023-01-02T09:12:58.739Z,0.20
2023-01-02T09:15:25.784Z,1.10
2023-01-02T09:17:52.841Z,0.93
2023-01-02T09:20:19.893Z,0.45
2023-01-02T09:22:46.891Z,1.10
2023-01-02T09:25:17.541Z,0.85
2023-01-02T09:27:47.403Z,0.43
2023-01-02T09:30:14.566Z,0.75
2023-01-02T09:32:41.583Z,0.43
2023-01-02T09:35:08.859Z,0.32
2023-01-02T09:37:35.911Z,0.85
2023-01-02T09:40:06.071Z,0.20
2023-01-02T09:42:33.160Z,0.47
2023-01-02T09:45:08.757Z,0.88
2023-01-02T09:47:39.229Z,1.15
2023-01-02T09:50:16.624Z,0.20
2023-01-02T09:52:54.586Z,0.28
2023-01-02T09:55:51.966Z,0.65
2023-01-02T09:58:55.396Z,0.20
2023-01-02T10:01:38.448Z,1.85
2023-01-02T10:04:35.903Z,0.20
2023-01-02T10:07:27.580Z,0.55
2023-01-02T10:10:27.450Z,0.65
2023-01-02T10:13:44.262Z,1.33
2023-01-02T10:16:24.167Z,0.25
2023-01-02T10:18:54.334Z,0.20
2023-01-02T10:21:29.598Z,0.40
2023-01-02T10:24:30.438Z,0.40
2023-01-02T10:26:58.426Z,0.30
2023-01-02T10:29:48.681Z,0.35
2023-01-02T10:32:21.874Z,2.45
2023-01-02T10:35:06.728Z,0.60
2023-01-02T10:37:35.534Z,0.60
2023-01-02T10:40:04.633Z,0.80
2023-01-02T10:42:33.999Z,1.55
2023-01-02T10:45:01.477Z,0.93
2023-01-02T10:47:38.457Z,0.30
2023-01-02T10:50:23.413Z,0.40
2023-01-02T10:52:54.523Z,0.70
2023-01-02T10:55:43.553Z,1.13
2023-01-02T10:58:28.106Z,0.80
2023-01-02T11:01:19.291Z,1.30
2023-01-02T11:03:49.270Z,0.50
2023-01-02T11:06:35.151Z,1.08
2023-01-02T11:09:36.504Z,1.67
2023-01-02T11:12:13.869Z,1.10
2023-01-02T11:14:41.369Z,0.80
2023-01-02T11:17:24.019Z,0.32
2023-01-02T11:19:54.998Z,0.93
2023-01-02T11:22:33.728Z,1.27
2023-01-02T11:25:08.193Z,1.50
2023-01-02T11:27:43.449Z,0.82
2023-01-02T11:30:46.115Z,0.40
2023-01-02T11:33:22.091Z,1.00
2023-01-02T11:35:54.006Z,1.90
2023-01-02T11:38:30.054Z,1.20
2023-01-02T11:41:02.637Z,0.75
2023-01-02T11:43:49.879Z,0.93
2023-01-02T11:46:39.596Z,0.32
2023-01-02T11:49:14.517Z,0.60
2023-01-02T11:51:42.080Z,1.10
2023-01-02T11:54:23.580Z,0.63
2023-01-02T11:56:52.105Z,0.88
2023-01-02T11:59:32.079Z,1.40
2023-01-02T12:02:23.654Z,1.10
2023-01-02T12:04:50.685Z,0.40
2023-01-02T12:07:46.601Z,0.68
2023-01-02T12:10:41.477Z,0.52
2023-01-02T12:13:35.814Z,0.80
2023-01-02T12:16:30.665Z,0.75
2023-01-02T12:19:23.605Z,0.65
2023-01-02T12:21:53.150Z,0.40
2023-01-02T12:24:26.067Z,0.50
2023-01-02T12:27:19.796Z,0.90
2023-01-02T12:30:22.180Z,0.40
2023-01-02T12:33:16.146Z,0.55
2023-01-02T12:36:10.572Z,1.70
2023-01-02T12:39:08.214Z,1.30
2023-01-02T12:42:02.410Z,0.85
2023-01-02T12:44:53.725Z,0.63
2023-01-02T12:47:36.171Z,0.80
2023-01-02T12:50:45.384Z,0.88
2023-01-02T12:54:19.225Z,0.70
2023-01-02T12:57:51.013Z,0.98
2023-01-02T13:00:56.389Z,0.80
2023-01-02T13:04:05.264Z,1.02
2023-01-02T13:06:56.775Z,1.13
2023-01-02T13:09:48.397Z,1.30
2023-01-02T13:12:22.156Z,1.00
2023-01-02T13:15:00.705Z,1.40
2023-01-02T13:17:44.930Z,1.00
2023-01-02T13:20:30.934Z,1.30
2023-01-02T13:23:23.883Z,0.95
2023-01-02T13:26:19.154Z,1.38
2023-01-02T13:29:06.630Z,0.90
2023-01-02T13:31:47.960Z,1.13
2023-01-02T13:34:24.104Z,0.68
2023-01-02T13:37:04.419Z,1.23
2023-01-02T13:39:40.722Z,0.70
2023-01-02T13:42:37.893Z,0.50
2023-01-02T13:45:37.504Z,0.85
2023-01-02T13:48:22.027Z,1.83
2023-01-02T13:51:04.669Z,0.80
2023-01-02T13:53:47.952Z,0.90
2023-01-02T13:56:17.210Z,0.70
2023-01-02T13:59:04.017Z,1.10
2023-01-02T14:01:59.776Z,1.00
2023-01-02T14:04:35.049Z,0.98
2023-01-02T14:07:26.633Z,0.60
2023-01-02T14:09:59.638Z,0.80
2023-01-02T14:12:26.899Z,0.50
2023-01-02T14:14:54.214Z,0.77
2023-01-02T14:17:54.301Z,1.38
2023-01-02T14:20:28.265Z,1.73
2023-01-02T14:23:08.553Z,0.45
2023-01-02T14:25:47.674Z,0.70
2023-01-02T14:28:30.341Z,0.53
2023-01-02T14:30:58.445Z,0.65
2023-01-02T14:33:36.372Z,0.73
2023-01-02T14:36:09.727Z,0.45
2023-01-02T14:38:43.249Z,0.60
2023-01-02T14:42:17.060Z,0.50
2023-01-02T14:44:52.291Z,0.40
2023-01-02T14:47:35.378Z,0.68
2023-01-02T14:50:06.702Z,0.50
2023-01-02T14:52:40.813Z,0.82
2023-01-02T14:55:25.199Z,0.35
2023-01-02T14:57:54.544Z,0.13
2023-01-02T15:00:38.020Z,1.08
2023-01-02T15:03:53.735Z,0.57
2023-01-02T15:06:38.941Z,0.52
2023-01-02T15:09:15.555Z,0.50
2023-01-02T15:12:16.179Z,0.60
2023-01-02T15:14:43.611Z,0.82
2023-01-02T15:17:18.310Z,0.30
2023-01-02T15:19:46.684Z,0.50
2023-01-02T15:22:26.521Z,0.30
2023-01-02T15:24:54.861Z,0.65
2023-01-02T15:27:29.931Z,0.60
2023-01-02T15:30:05.733Z,0.65
2023-01-02T15:32:34.373Z,0.30
2023-01-02T15:35:25.224Z,0.85
2023-01-02T15:37:52.402Z,0.60
2023-01-02T15:40:33.371Z,0.40
2023-01-02T15:43:33.020Z,0.60
2023-01-02T15:46:04.445Z,0.90
2023-01-02T15:48:32.097Z,1.60
2023-01-02T15:51:00.149Z,0.30
2023-01-02T15:53:39.916Z,0.32
2023-01-02T15:56:12.087Z,0.63
2023-01-02T15:58:49.832Z,0.60
2023-01-02T16:01:22.371Z,3.80
2023-01-02T16:04:04.561Z,4.95
2023-01-02T16:06:45.030Z,4.80
2023-01-02T16:09:25.497Z,6.63
2023-01-02T16:12:02.564Z,5.13
2023-01-02T16:14:43.646Z,4.03
2023-01-02T16:17:36.823Z,3.60
2023-01-02T16:20:12.906Z,4.20
2023-01-02T16:22:55.398Z,6.65
2023-01-02T16:25:26.811Z,7.60
2023-01-02T16:28:34.626Z,6.63
2023-01-02T16:31:19.417Z,6.65
2023-01-02T16:33:47.078Z,7.63
2023-01-02T16:36:26.487Z,6.80
2023-01-02T16:38:55.935Z,7.13
2023-01-02T16:41:34.670Z,7.60
2023-01-02T16:44:03.101Z,6.80
2023-01-02T16:46:31.150Z,7.78
2023-01-02T16:49:04.988Z,4.70
2023-01-02T16:51:34.594Z,5.00
2023-01-02T16:54:01.697Z,4.70
2023-01-02T16:56:28.878Z,4.53
2023-01-02T16:58:55.823Z,7.35
2023-01-02T17:01:24.353Z,4.38
2023-01-02T17:03:51.671Z,3.70
2023-01-02T17:06:21.555Z,4.93
2023-01-02T17:08:48.660Z,4.22
2023-01-02T17:11:22.900Z,3.80
2023-01-02T17:13:51.938Z,4.40
2023-01-02T17:16:20.098Z,5.22
2023-01-02T17:18:47.186Z,7.43
2023-01-02T17:21:14.277Z,6.43
2023-01-02T17:23:41.739Z,3.67
2023-01-02T17:26:08.702Z,4.93
2023-01-02T17:28:36.694Z,5.32
2023-01-02T17:31:04.049Z,3.65
2023-01-02T17:33:31.180Z,4.60
2023-01-02T17:35:58.289Z,3.60
2023-01-02T17:38:25.474Z,3.08
2023-01-02T17:40:58.179Z,3.47
2023-01-02T17:43:26.353Z,3.97
2023-01-02T17:45:53.512Z,6.78
2023-01-02T17:48:24.782Z,4.07
2023-01-02T17:50:53.465Z,3.65
2023-01-02T17:53:20.889Z,3.58
2023-01-02T17:56:20.525Z,4.15
2023-01-02T17:58:40.032Z,4.00
2023-01-02T18:01:07.065Z,3.45
2023-01-02T18:03:34.043Z,4.90
2023-01-02T18:06:06.289Z,4.07
2023-01-02T18:08:34.070Z,4.35
2023-01-02T18:11:05.127Z,4.93
2023-01-02T18:13:35.584Z,4.88
2023-01-02T18:16:02.685Z,4.45
2023-01-02T18:18:30.942Z,5.20
2023-01-02T18:20:58.053Z,5.87
2023-01-02T18:23:26.122Z,4.68
2023-01-02T18:25:53.083Z,6.03
2023-01-02T18:28:26.468Z,5.57
2023-01-02T18:30:57.966Z,5.95
2023-01-02T18:33:26.391Z,5.70
2023-01-02T18:36:01.649Z,5.68
2023-01-02T18:38:37.931Z,5.78
2023-01-02T18:41:31.058Z,8.18
2023-01-02T18:44:13.317Z,5.60
2023-01-02T18:47:02.024Z,5.40
2023-01-02T18:49:41.079Z,6.00
2023-01-02T18:52:10.818Z,5.30
2023-01-02T18:54:43.120Z,5.10
2023-01-02T18:57:19.846Z,6.97
2023-01-02T18:59:49.613Z,7.28
2023-01-02T19:02:49.954Z,7.22
2023-01-02T19:05:23.235Z,7.67
2023-01-02T19:07:50.274Z,7.25
2023-01-02T19:10:38.914Z,8.20
2023-01-02T19:13:32.229Z,7.45
2023-01-02T19:16:18.948Z,8.07
2023-01-02T19:18:53.873Z,6.90
2023-01-02T19:21:29.504Z,9.30
2023-01-02T19:24:08.078Z,8.43
2023-01-02T19:26:44.911Z,9.98
2023-01-02T19:29:11.890Z,9.60
2023-01-02T19:31:41.745Z,7.68
2023-01-02T19:34:27.676Z,8.82
2023-01-02T19:37:12.727Z,8.25
2023-01-02T19:39:55.602Z,9.27
2023-01-02T19:42:25.574Z,7.35
2023-01-02T19:45:04.548Z,10.25
2023-01-02T19:47:36.350Z,11.20
2023-01-02T19:50:07.294Z,7.45
2023-01-02T19:52:34.735Z,8.23
2023-01-02T19:55:03.180Z,8.15
2023-01-02T19:57:30.130Z,10.27
2023-01-02T19:59:58.932Z,11.15
2023-01-02T20:02:27.815Z,8.00
2023-01-02T20:04:55.508Z,8.82
2023-01-02T20:07:24.408Z,8.32
2023-01-02T20:09:52.798Z,8.07
2023-01-02T20:12:30.351Z,9.77
2023-01-02T20:15:00.179Z,9.30
2023-01-02T20:17:28.609Z,8.13
2023-01-02T20:19:56.219Z,8.88
2023-01-02T20:22:23.384Z,9.48
2023-01-02T20:24:50.342Z,9.82
2023-01-02T20:27:17.419Z,8.90
2023-01-02T20:29:44.564Z,7.68
2023-01-02T20:32:11.566Z,6.95
2023-01-02T20:34:39.023Z,7.80
2023-01-02T20:37:06.330Z,8.60
2023-01-02T20:39:33.334Z,7.45
2023-01-02T20:42:00.319Z,7.50
2023-01-02T20:44:27.517Z,7.87
2023-01-02T20:46:56.266Z,6.80
2023-01-02T20:49:26.275Z,7.70
2023-01-02T20:51:55.809Z,6.43
2023-01-02T20:54:24.574Z,7.65
2023-01-02T20:56:52.139Z,5.75
2023-01-02T20:59:20.457Z,6.78
2023-01-02T21:01:47.821Z,7.60
2023-01-02T21:04:20.450Z,6.73
2023-01-02T21:06:55.763Z,5.30
2023-01-02T21:09:23.116Z,5.05
2023-01-02T21:11:50.235Z,6.60
2023-01-02T21:14:17.267Z,4.97
2023-01-02T21:16:44.288Z,4.03
2023-01-02T21:19:11.265Z,7.72
2023-01-02T21:21:38.284Z,7.07
2023-01-02T21:24:05.784Z,5.20
2023-01-02T21:26:32.761Z,7.77
2023-01-02T21:28:59.737Z,6.05
2023-01-02T21:31:27.424Z,6.83
2023-01-02T21:33:54.687Z,14.68
2023-01-02T21:36:21.712Z,10.65
2023-01-02T21:38:48.672Z,7.75
2023-01-02T21:41:33.986Z,7.32
2023-01-02T21:44:01.088Z,7.25
2023-01-02T21:46:28.152Z,8.07
2023-01-02T21:48:55.125Z,6.35
2023-01-02T21:51:24.319Z,6.50
2023-01-02T21:53:53.409Z,6.43
2023-01-02T21:56:20.468Z,7.38
2023-01-02T21:58:47.449Z,8.47
2023-01-02T22:01:14.595Z,9.30
2023-01-02T22:03:41.724Z,9.02
2023-01-02T22:06:08.795Z,7.13
2023-01-02T22:08:35.783Z,10.93
2023-01-02T22:11:21.306Z,8.57
2023-01-02T22:13:48.282Z,8.52
2023-01-02T22:16:15.254Z,7.18
2023-01-02T22:18:42.226Z,7.45
2023-01-02T22:21:09.223Z,8.52
2023-01-02T22:23:36.189Z,9.55
2023-01-02T22:26:03.256Z,7.75
2023-01-02T22:28:30.278Z,7.55
2023-01-02T22:30:57.776Z,8.38
2023-01-02T22:33:24.761Z,10.50
2023-01-02T22:35:51.774Z,8.18
2023-01-02T22:38:19.109Z,8.38
2023-01-02T22:40:46.125Z,24.13
2023-01-02T22:43:18.053Z,15.38
2023-01-02T22:45:53.307Z,11.07
2023-01-02T22:48:31.052Z,11.23
2023-01-02T22:51:00.492Z,12.57
2023-01-02T22:53:32.049Z,10.05
2023-01-02T22:56:01.716Z,14.90
2023-01-02T22:58:28.857Z,15.57
2023-01-02T23:01:02.935Z,11.05
2023-01-02T23:03:38.409Z,12.82
2023-01-02T23:06:05.474Z,12.43
2023-01-02T23:08:32.642Z,10.63
2023-01-02T23:10:59.985Z,9.20
2023-01-02T23:13:27.160Z,10.05
2023-01-02T23:16:17.467Z,8.73
2023-01-02T23:19:03.434Z,8.02
2023-01-02T23:21:32.773Z,10.25
2023-01-02T23:24:00.832Z,11.60
2023-01-02T23:26:41.124Z,10.97
2023-01-02T23:29:09.252Z,7.57
2023-01-02T23:31:40.621Z,9.18
2023-01-02T23:34:09.181Z,8.07
2023-01-02T23:36:37.604Z,8.23
2023-01-02T23:39:07.769Z,6.78
2023-01-02T23:41:35.666Z,8.93
2023-01-02T23:44:02.706Z,10.02
2023-01-02T23:46:29.864Z,13.52
2023-01-02T23:48:56.982Z,8.38
2023-01-02T23:51:23.961Z,8.90
2023-01-02T23:53:50.943Z,7.10
2023-01-02T23:56:27.857Z,6.87
2023-01-02T23:58:57.132Z,7.63
